»·PEaware :: UAL215 KSFO-KLAX

UAL215 :: KSFO-KLAX

FLIGHT INFORMATION

Flight Status: Arrived
Operator:
United Airlines
More flights by this operator :: More flights under this callsign
Pilot: Paul P. (20696)
Aircraft: BOEING 737-800
(B738)
More flights by this aircraft type
Origin: KSFO San Francisco Intl
United States
Destination: KLAX Los Angeles Intl
United States
More flights between these airports :: More routes between these airports
Route: +SSTIK4 EBAYE BURGL IRNMN2
File this flight plan on PilotEdge
Remarks: PBN / A1B1C1D1S1S2 DOF / 181005 REG / N13227 EET / KZAK0018 KZLA0023 SEL / EPDK CODE / A0855D OPR / UAL PER / C RMK / TCAS SIMBRIEF
Altitude:
(Current/Filed)
33,000ft
Speed:
(Current/Filed)
401kts
Departed: 05-Oct-18 01:12 PM
Arrived: 05-Oct-18 02:08 PM
Distance/Time
Traveled:
293nm/0:56
Distance/Time
To Go:
Arrived

Flight Plot

Page will automatically refresh every two minutes.

Flight plan parsing failed; only flown route is shown


Map Options




Map Legend


Flown Route
Filed Route
Departure Airport
Arrival Airport
Navaid (VOR, NDB)
Fix

Horizontal Profiles

Position Reports

Time Latitude Longitude Heading Altitude Ground
Speed
05-Oct-18 12:48 37.618041 -122.384055 281 31ft 0kts
05-Oct-18 12:49 37.618041 -122.384055 281 31ft 0kts
05-Oct-18 12:50 37.618041 -122.384055 281 31ft 0kts
05-Oct-18 12:51 37.618041 -122.384055 281 31ft 0kts
05-Oct-18 12:52 37.618041 -122.384055 281 31ft 0kts
05-Oct-18 12:53 37.618041 -122.384055 281 31ft 0kts
05-Oct-18 12:54 37.618041 -122.384055 281 31ft 0kts
05-Oct-18 12:55 37.618041 -122.384055 281 31ft 0kts
05-Oct-18 12:56 37.618041 -122.384055 281 31ft 0kts
05-Oct-18 12:57 37.618041 -122.384055 281 31ft 0kts
05-Oct-18 12:58 37.618041 -122.384055 281 31ft 0kts
05-Oct-18 12:59 37.618041 -122.384055 281 31ft 0kts
05-Oct-18 13:00 37.618041 -122.384055 281 31ft 0kts
05-Oct-18 13:01 37.618041 -122.384055 281 31ft 0kts
05-Oct-18 13:02 37.618041 -122.384055 281 31ft 0kts
05-Oct-18 13:03 37.618041 -122.384055 281 31ft 0kts
05-Oct-18 13:04 37.618031 -122.383989 276 31ft 2kts
05-Oct-18 13:05 37.617976 -122.383298 276 31ft 1kts
05-Oct-18 13:06 37.618409 -122.383277 19 31ft 4kts
05-Oct-18 13:07 37.619191 -122.382745 28 31ft 0kts
05-Oct-18 13:08 37.619192 -122.382744 28 31ft 0kts
05-Oct-18 13:09 37.619526 -122.381717 115 31ft 10kts
05-Oct-18 13:10 37.616580 -122.379689 203 30ft 17kts
05-Oct-18 13:11 37.611738 -122.382879 208 31ft 18kts
05-Oct-18 13:12 37.609169 -122.383591 123 31ft 0kts
05-Oct-18 13:13 37.608847 -122.382467 68 29ft 15kts
05-Oct-18 13:14 37.627736 -122.369258 23 513ft 148kts
05-Oct-18 13:15 37.658285 -122.381633 262 2432ft 199kts
05-Oct-18 13:16 37.600461 -122.424165 203 5105ft 277kts
05-Oct-18 13:17 37.525309 -122.455567 188 8461ft 301kts
05-Oct-18 13:18 37.446443 -122.415743 133 11094ft 340kts
05-Oct-18 13:19 37.381126 -122.326870 132 14042ft 361kts
05-Oct-18 13:20 37.312177 -122.233021 133 16955ft 381kts
05-Oct-18 13:21 37.238764 -122.133850 133 19611ft 400kts
05-Oct-18 13:22 37.162363 -122.030942 132 22069ft 416kts
05-Oct-18 13:23 37.082370 -121.923489 132 24271ft 432kts
05-Oct-18 13:24 36.999295 -121.812266 132 26322ft 446kts
05-Oct-18 13:25 36.913559 -121.697892 131 28146ft 460kts
05-Oct-18 13:26 36.827994 -121.584166 131 29893ft 468kts
05-Oct-18 13:27 36.742180 -121.470450 132 31836ft 466kts
05-Oct-18 13:28 36.659961 -121.361915 133 33120ft 470kts
05-Oct-18 13:29 36.572246 -121.246431 133 33113ft 497kts
05-Oct-18 13:30 36.485085 -121.132037 133 33108ft 503kts
05-Oct-18 13:31 36.391941 -121.005654 130 33111ft 503kts
05-Oct-18 13:32 36.302881 -120.877246 130 33087ft 503kts
05-Oct-18 13:33 36.216066 -120.752982 131 33091ft 500kts
05-Oct-18 13:34 36.125488 -120.623893 131 33097ft 501kts
05-Oct-18 13:35 36.038337 -120.500189 131 33098ft 500kts
05-Oct-18 13:36 35.949551 -120.374643 131 33100ft 500kts
05-Oct-18 13:37 35.862850 -120.257940 141 33087ft 499kts
05-Oct-18 13:38 35.748015 -120.169365 151 33088ft 496kts
05-Oct-18 13:39 35.631436 -120.081534 150 33090ft 494kts
05-Oct-18 13:40 35.516007 -119.994509 150 33091ft 494kts
05-Oct-18 13:41 35.405616 -119.911571 150 33045ft 494kts
05-Oct-18 13:42 35.290059 -119.824931 149 33066ft 491kts
05-Oct-18 13:43 35.188653 -119.730683 144 33056ft 453kts
05-Oct-18 13:44 35.088865 -119.637599 144 33019ft 454kts
05-Oct-18 13:45 34.989897 -119.545613 143 30785ft 445kts
05-Oct-18 13:46 34.900681 -119.463134 144 29026ft 424kts
05-Oct-18 13:47 34.808724 -119.380813 144 26971ft 415kts
05-Oct-18 13:48 34.731165 -119.311735 145 25341ft 401kts
05-Oct-18 13:49 34.642515 -119.234360 145 23317ft 391kts
05-Oct-18 13:50 34.558772 -119.162211 145 21300ft 383kts
05-Oct-18 13:51 34.474097 -119.087330 144 19409ft 371kts
05-Oct-18 13:52 34.392406 -119.015784 145 17614ft 359kts
05-Oct-18 13:53 34.313060 -118.946241 143 15901ft 348kts
05-Oct-18 13:54 34.237655 -118.877616 142 14293ft 338kts
05-Oct-18 13:55 34.169790 -118.815038 142 12859ft 330kts
05-Oct-18 13:56 34.103471 -118.744002 136 11438ft 320kts
05-Oct-18 13:57 34.041275 -118.670845 118 10016ft 302kts
05-Oct-18 13:58 34.022032 -118.577302 94 8756ft 288kts
05-Oct-18 13:59 34.014472 -118.500397 93 7773ft 284kts
05-Oct-18 14:00 34.015507 -118.421737 75 6795ft 272kts
05-Oct-18 14:01 34.029279 -118.341263 80 5992ft 252kts
05-Oct-18 14:02 34.037545 -118.259458 80 5282ft 244kts
05-Oct-18 14:03 34.044780 -118.182049 99 4296ft 241kts
05-Oct-18 14:04 33.994262 -118.145635 189 3406ft 231kts
05-Oct-18 14:05 33.957553 -118.193295 262 2986ft 211kts
05-Oct-18 14:06 33.950060 -118.257759 264 2183ft 192kts
05-Oct-18 14:07 33.944164 -118.315877 263 1211ft 143kts
05-Oct-18 14:08 33.939681 -118.359720 262 509ft 133kts
05-Oct-18 14:09 33.936833 -118.388291 261 122ft 129kts
05-Oct-18 14:10 33.936645 -118.400039 273 116ft 10kts
05-Oct-18 14:11 33.936876 -118.403966 315 120ft 15kts
05-Oct-18 14:12 33.938267 -118.404620 275 122ft 7kts
05-Oct-18 14:13 33.940199 -118.405295 89 122ft 3kts
05-Oct-18 14:14 33.940228 -118.404932 84 122ft 0kts

Navigation Log

Ident Type
Flight plan parsing failed, navigation log unavailable